EUFO2: Eufaula Lake

Data processed at Wed Apr 18 2018 23:20


All information presented herein is the property of the government of the United States of America and may be revised or deleted at any time without prior notice.
Dissemination of this information without the expressed written consent of the Public Affairs Office, Tulsa District U.S. Army Corps of Engineers is strictly prohibited.
These data are gathered electronically and, as presented, have not undergone any form of quality control. These data are not guaranteed to be valid or correct.
Go to home page.
Go to station list.

Upstream stations:

Downstream station:
Previous Day
Next Day
Current Day
    
SHEF ID:       EUFO2     Eufaula Lake
STATION TYPE:  RESERVOIR
Normal Pool:  Bottom =   565.00, Top =   585.00

               PRECIP ELEVATION   STORAGE   TW-ELEV    INFLOW   RELEASE  AIR-TEMP  WIND-DIRWIND-SPEED REL-HUMID SOLAR-RAD   VOLTAGE  BAT-LOAD
                   in        ft     ac-ft        ft       cfs       cfs         F       deg       mph         %      W/m2      volt      volt
              Ccp-Rev   Ccp-Rev   Ccp-Rev   Ccp-Rev  Regi-Rev  Regi-Rev   Ccp-Rev   Ccp-Rev   Ccp-Rev   Ccp-Rev   Ccp-Rev   Ccp-Rev   Ccp-Rev
(US/Central)
04/16 00:00      0.00    585.75   2265780    490.19         0     16104     41.76    343.60      1.47     52.69      0.00     13.74     13.53
04/16 01:00      0.00    585.76   2266725    490.16         0     16254     40.66     13.50      0.14     49.45      0.00     13.74     13.53
04/16 02:00      0.00    585.73   2263888    490.19         0     16104     38.91      0.70      0.39     55.01      0.00     13.74     13.53
04/16 03:00      0.00    585.71   2261997    490.17         0     16104     37.47    339.20      1.68     60.32      0.00     13.74     13.53
04/16 04:00      0.00    585.70   2261051    490.25         0     16104     35.94    331.20      1.76     65.69      0.00     13.74     13.53
04/16 05:00      0.00    585.70   2261051    490.25         0     16104     36.16    335.30      1.33     63.25      0.00     13.74     13.53
04/16 06:00      0.00    585.69   2260106    490.30       888     16259     36.37    332.10      1.72     64.35      0.00     13.73     13.53
04/16 07:00      0.00    585.65   2256323    490.22       919     15954     33.30    342.00      2.05     67.64      1.00     13.73     13.53
04/16 08:00      0.00    585.67   2258215    490.24       919     16149     36.27    331.70      1.27     59.46     30.00     13.73     13.53
04/16 09:00      0.00    585.67   2258215    490.00       919     16109     38.91    348.60      1.49     53.06    312.00     13.73     13.53
04/16 10:00      0.00    585.65   2256323    489.77       919     12252     39.34    285.60      2.71     55.43    544.00     13.73     13.53
04/16 11:00      0.00    585.61   2252541    490.54        50     17207     41.76    271.00      4.81     50.43    746.00     13.73     13.53
04/16 12:00      0.00    585.61   2252541    489.82        19     18655     45.95    269.60      4.65     45.06    889.00     13.74     13.53
04/16 13:00      0.00    585.60   2251595    489.28        19     12375     49.33    266.10      6.53     42.86    973.00     13.74     13.53
04/16 14:00      0.00    585.57   2248758    489.29        36     12525     57.36    277.40      1.00     29.18    978.00     13.74     13.53
04/16 15:00      0.00    585.55   2246867    489.26        53     12225     59.13    120.60      4.52     23.75    944.00     13.75     13.53
04/16 16:00      0.00    585.56   2247813    489.20        91     12225     62.53    115.40      4.88     22.53    840.00     13.75     13.53
04/16 17:00      0.00    585.54   2245921    489.21       252     12225     65.61    103.40      5.43     22.71    627.00     13.75     13.36
04/16 18:00      0.00    585.53   2244976    489.20       277     12225     65.26    105.90      7.05     24.48    510.00     13.75     13.42
04/16 19:00      0.00    585.54   2245921    489.21       285     12075     64.94    107.20      6.34     26.43    270.00     13.76     13.53
04/16 20:00      0.00    585.52   2244030    489.22       268     12225     61.11     95.60      4.19     29.98     28.00     13.76     13.53
04/16 21:00      0.00    585.52   2244030    489.29       211     12075     58.24    140.60      3.59     38.22      1.00     13.76     13.53
04/16 22:00      0.00    585.52   2244030    489.12        78     12225     57.15    146.00      3.20     40.11      0.00     13.76     13.53
04/16 23:00      0.00    585.49   2241193    489.15        81     12375     55.71    129.90      4.64     44.20      0.00     13.76     13.53